Tiempo atmosférico en la estación meteorológica de La Oliva, Las Palmas (217 m.)



Fecha
DESCASC
Temp. máxima en grados centígrados (hora)
DESCASC
Temp. mínima en grados centígrados (hora)
DESCASC
Temp. media en grados centígrados
DESCASC
Racha de viento máxima en m/sg (hora)
DESCASC
Velocidad máxima media en intervalos de 10 minutos(hora)
DESCASC
Precipitaciones diarias en mm
DESCASC
Precipitaciones de 00:00 a 06:00 en mm
DESCASC
Precipitaciones de 06:00 a 12:00 en mm
DESCASC
Precipitaciones de 12:00 a 18:00 en mm
DESCASC
Precipitaciones de 18:00 a 24:00 en mm
DESCASC
08-12-2019 19.8 (13:40) 12.7 (07:40) 16.2 11.11 (16:40) 7.22 (16:00) 0 0 0 0 0
07-12-2019 19.3 (12:50) 11.7 (05:50) 15.5 8.61 (15:30) 4.72 (15:50) 0.2 0 0 0.2 0
06-12-2019 18.2 (13:20) 13.5 (23:30) 15.9 11.11 (13:30) 6.11 (13:20) 1.6 0.6 1 0 0
05-12-2019 18 (13:10) 13.8 (00:00) 15.9 13.61 (01:40) 7.78 (00:30) 12.6 11.2 0 1 0.4
04-12-2019 20.4 (14:00) 11.6 (00:00) 16 9.17 (14:50) 6.39 (15:50) 0.4 0 0 0 0.4
03-12-2019 19.3 (11:50) 15 (00:00) 17.1 11.67 (14:10) 6.39 (14:20) 0.4 0 0 0.2 0.2
02-12-2019 19.7 (12:30) 14.9 (00:00) 17.3 11.39 (13:10) 6.67 (14:20) 0.4 0 0 0.4 0
01-12-2019 20.9 (13:30) 14.7 (00:00) 17.8 9.72 (06:20) 6.11 (04:20) 0 0 0 0 0
30-11-2019 23.4 (14:10) 16.7 (00:00) 20.1 9.17 (12:10) 6.11 (11:50) 0 0 0 0 0
29-11-2019 23.6 (14:40) 16.7 (00:00) 20.2 10.56 (10:50) 7.5 (05:50) 0 0 0 0 0
28-11-2019 22 (13:30) 16.3 (00:00) 19.1 10 (22:40) 6.11 (08:50) 0 0 0 0 0
27-11-2019 21.2 (14:20) 15.5 (00:00) 18.4 6.67 (15:00) 4.72 (01:40) 0 0 0 0 0
26-11-2019 22.3 (14:10) 14 (00:00) 18.1 8.33 (11:10) 5.56 (10:40) 0 0 0 0 0
25-11-2019 20.1 (13:30) 12.6 (00:00) 16.4 8.06 (11:00) 5 (12:00) 0 0 0 0 0
24-11-2019 20.4 (14:00) 15.2 (00:00) 17.8 9.17 (14:40) 5 (10:50) 0 0 0 0 0
23-11-2019 21.7 (13:00) 17 (00:00) 19.4 9.17 (13:50) 5.56 (02:30) 0.4 0 0 0.4 0
22-11-2019 21.8 (15:30) 16.4 (00:00) 19.1 9.72 (06:20) 6.67 (06:10) 3 0 3 0 0
21-11-2019 21.3 (14:50) 14.9 (00:00) 18.1 8.61 (17:20) 6.11 (16:40) 0 0 0 0 0
20-11-2019 21.8 (12:00) 12.8 (00:00) 17.3 9.72 (15:50) 6.39 (19:40) 0.2 0.2 0 0 0
19-11-2019 20.9 (13:40) 13.7 (00:00) 17.3 8.06 (11:00) 4.17 (13:20) 1.8 1.8 0 0 0
18-11-2019 19.7 (13:30) 12.9 (00:00) 16.3 7.78 (11:10) 5.28 (10:50) 0 0 0 0 0
17-11-2019 18.6 (13:10) 12.2 (00:00) 15.4 12.5 (11:10) 7.78 (11:40) 0 0 0 0 0
16-11-2019 18.7 (11:40) 14.4 (00:00) 16.6 12.22 (10:40) 7.22 (10:40) 0.4 0.2 0.2 0 0
15-11-2019 19.7 (12:30) 14.8 (00:00) 17.3 11.67 (16:20) 7.5 (14:10) 0 0 0 0 0
14-11-2019 21.5 (13:20) 14.1 (00:00) 17.8 10.28 (13:20) 6.94 (14:50) 0 0 0 0 0
13-11-2019 22.2 (14:00) 16.1 (00:00) 19.2 13.33 (10:00) 8.06 (09:50) 0 0 0 0 0
12-11-2019 22.5 (13:30) 17.2 (00:00) 19.9 12.78 (17:00) 8.33 (17:10) 0 0 0 0 0
11-11-2019 21.7 (13:00) 16.8 (04:30) 19.3 16.39 (14:50) 10.28 (14:50) 0 0 0 0 0
10-11-2019 21.4 (12:50) 16.1 (00:00) 18.8 14.44 (11:10) 9.44 (14:10) 0 0 0 0 0

Gráficas

Temp. máximas Temp. mínimas Temp. medias Precipitaciones Rachas de viento máximas Velocidades máximas media en intervalos de 10 minutos

Datos horarios

Fecha y hora oficial Temperatura (ºC) Velocidad del viento (km/h) Dirección del viento Racha (km/h) Dirección de racha Precipitación (mm) Presión (hPa) Tendencia (hPa) Humedad (%)
2019-12-09 23:00:00 15.2 6 Este 14 Nordeste 0 -- -- 85
2019-12-09 22:00:00 15.1 10 Este 14 Este 0 -- -- 85
2019-12-09 21:00:00 15.3 8 Nordeste 13 Este 0 -- -- 83
2019-12-09 20:00:00 16 9 Nordeste 14 Nordeste 0 -- -- 81
2019-12-09 19:00:00 16.4 9 Nordeste 20 Nordeste 0 -- -- 82
2019-12-09 18:00:00 17.2 12 Nordeste 22 Este 0 -- -- 78
2019-12-09 17:00:00 18.3 16 Nordeste 25 Nordeste 0 -- -- 71
2019-12-09 16:00:00 18.9 17 Nordeste 28 Este 0 -- -- 70
2019-12-09 15:00:00 19 18 Nordeste 28 Nordeste 0 -- -- 70
2019-12-09 14:00:00 18.6 17 Este 29 Este 0 -- -- 69
2019-12-09 13:00:00 19 18 Este 32 Este 0 -- -- 65
2019-12-09 12:00:00 18.3 20 Nordeste 36 Este 0 -- -- 69
2019-12-09 11:00:00 17.7 18 Nordeste 29 Nordeste 0 -- -- 76
2019-12-09 10:00:00 17.4 15 Nordeste 28 Nordeste 0 -- -- 80
2019-12-09 09:00:00 16.6 16 Nordeste 29 Nordeste 0 -- -- 83
2019-12-09 08:00:00 15.1 12 Nordeste 20 Nordeste 0 -- -- 88
2019-12-09 07:00:00 14.8 12 Nordeste 17 Nordeste 0 -- -- 87
2019-12-09 06:00:00 15 8 Este 18 Nordeste 0 -- -- 86
2019-12-09 05:00:00 15.2 7 Nordeste 23 Nordeste 0 -- -- 85
2019-12-09 04:00:00 15.6 12 Nordeste 20 Nordeste 0 -- -- 85
2019-12-09 03:00:00 16 14 Nordeste 26 Nordeste 0 -- -- 83
2019-12-09 02:00:00 16 11 Nordeste 30 Nordeste 0 -- -- 83
2019-12-09 01:00:00 16 13 Nordeste 27 Nordeste 0 -- -- 81
2019-12-09 00:00:00 16.1 12 Nordeste 27 Nordeste 0 -- -- 79
2019-12-08 23:00:00 16.2 16 Nordeste 29 Nordeste 0 -- -- 78
2019-12-08 22:00:00 15.9 12 Nordeste 31 Nordeste 0 -- -- 78
2019-12-08 21:00:00 16.3 15 Nordeste 29 Nordeste 0 -- -- 77
2019-12-08 20:00:00 16.2 13 Nordeste 34 Nordeste 0 -- -- 76
2019-12-08 19:00:00 16.7 13 Nordeste 28 Nordeste 0 -- -- 72
2019-12-08 18:00:00 17 17 Nordeste 35 Nordeste 0 -- -- 73
2019-12-08 17:00:00 17.9 24 Nordeste 40 Nordeste 0 -- -- 71
2019-12-08 16:00:00 18.8 26 Nordeste 39 Este 0 -- -- 66
2019-12-08 15:00:00 19.4 23 Nordeste 37 Este 0 -- -- 61
2019-12-08 14:00:00 19.1 23 Nordeste 39 Nordeste 0 -- -- 64
2019-12-08 13:00:00 19.2 20 Nordeste 34 Nordeste 0 -- -- 59
2019-12-08 12:00:00 18.3 19 Nordeste 33 Nordeste 0 -- -- 67
2019-12-08 11:00:00 18.4 18 Nordeste 33 Norte 0 -- -- 67
2019-12-08 10:00:00 17.1 14 Nordeste 26 Nordeste 0 -- -- 74
2019-12-08 09:00:00 15.1 9 Nordeste 20 Nordeste 0 -- -- 80
2019-12-08 08:00:00 12.8 5 Nordeste 9 Nordeste 0 -- -- 87
2019-12-08 07:00:00 13.3 6 Nordeste 15 Nordeste 0 -- -- 84
2019-12-08 06:00:00 14.4 12 Nordeste 23 Nordeste 0 -- -- 81
2019-12-08 05:00:00 14.9 14 Nordeste 24 Nordeste 0 -- -- 78
2019-12-08 04:00:00 14.8 12 Nordeste 20 Nordeste 0 -- -- 82
2019-12-08 03:00:00 15 12 Nordeste 23 Nordeste 0 -- -- 82
2019-12-08 02:00:00 15.1 12 Nordeste 21 Nordeste 0 -- -- 83
2019-12-08 01:00:00 15 9 Nordeste 18 Nordeste 0 -- -- 84
2019-12-08 00:00:00 15.3 7 Nordeste 20 Nordeste 0 -- -- 84
2019-12-07 23:00:00 15.8 14 Nordeste 23 Nordeste 0 -- -- 82
2019-12-07 22:00:00 15.9 9 Nordeste 20 Nordeste 0 -- -- 84
2019-12-07 21:00:00 15.7 10 Nordeste 18 Nordeste 0 -- -- 83
2019-12-07 20:00:00 16.2 11 Nordeste 22 Norte 0 -- -- 81
2019-12-07 19:00:00 16.8 15 Norte 24 Norte 0 -- -- 81
2019-12-07 18:00:00 17.3 12 Norte 26 Norte 0 -- -- 79
2019-12-07 17:00:00 18.3 17 Norte 31 Norte 0 -- -- 72
2019-12-07 16:00:00 18.7 16 Norte 31 Norte 0 -- -- 72
2019-12-07 15:00:00 18.1 12 Norte 25 Nordeste 0 -- -- 76
2019-12-07 14:00:00 18.3 15 Norte 27 Norte 0.2 -- -- 77
2019-12-07 13:00:00 19.1 14 Nordeste 25 Nordeste 0 -- -- 67
2019-12-07 12:00:00 18.4 14 Nordeste 25 Nordeste 0 -- -- 68
2019-12-07 11:00:00 18.4 14 Nordeste 24 Norte 0 -- -- 67
2019-12-07 10:00:00 17.2 10 Nordeste 17 Nordeste 0 -- -- 79
2019-12-07 09:00:00 15.3 3 Sudeste 6 Este 0 -- -- 87
2019-12-07 08:00:00 12.6 0 Calma 5 Nordeste 0 -- -- 90
2019-12-07 07:00:00 12.3 3 Sudeste 6 Sur 0 -- -- 90
2019-12-07 06:00:00 11.7 3 Sudoeste 4 Oeste 0 -- -- 89
2019-12-07 05:00:00 12.4 2 Sur 8 Norte 0 -- -- 88
2019-12-07 04:00:00 12.9 3 Nordeste 14 Norte 0 -- -- 85
2019-12-07 03:00:00 12.8 6 Norte 10 Norte 0 -- -- 88
2019-12-07 02:00:00 12.8 3 Sudeste 11 Nordeste 0 -- -- 85
2019-12-07 01:00:00 13.2 6 Norte 12 Nordeste 0 -- -- 85
2019-12-07 00:00:00 13.7 7 Norte 12 Norte 0 -- -- 84
2019-12-06 23:00:00 14.1 6 Nordeste 15 Norte 0 -- -- 82
2019-12-06 22:00:00 14.4 7 Nordeste 20 Nordeste 0 -- -- 83
2019-12-06 21:00:00 14.8 10 Norte 16 Norte 0 -- -- 82
2019-12-06 20:00:00 14.2 3 Sudeste 19 Nordeste 0 -- -- 84
2019-12-06 19:00:00 15.3 12 Nordeste 24 Norte 0 -- -- 81
2019-12-06 18:00:00 16.1 14 Norte 25 Norte 0 -- -- 76
2019-12-06 17:00:00 16.4 12 Norte 23 Norte 0 -- -- 74
2019-12-06 16:00:00 16.1 14 Norte 34 Noroeste 0 -- -- 71
2019-12-06 15:00:00 17.7 17 Norte 31 Norte 0 -- -- 68
2019-12-06 14:00:00 17.5 18 Norte 40 Norte 0 -- -- 68
2019-12-06 13:00:00 17.9 19 Norte 38 Norte 0 -- -- 71
2019-12-06 12:00:00 17.4 19 Norte 33 Norte 0 -- -- 73
2019-12-06 11:00:00 16.8 14 Norte 28 Norte 1 -- -- 74
2019-12-06 10:00:00 17.2 13 Norte 24 Norte 0 -- -- 77
2019-12-06 09:00:00 15.4 12 Nordeste 28 Norte 0 -- -- 82
2019-12-06 08:00:00 14.6 15 Norte 25 Norte 0 -- -- 82
2019-12-06 07:00:00 14.2 10 Norte 21 Norte 0 -- -- 85
2019-12-06 06:00:00 14.3 13 Norte 21 Norte 0 -- -- 84
2019-12-06 05:00:00 14.5 11 Norte 26 Norte 0 -- -- 83
2019-12-06 04:00:00 14.5 12 Norte 21 Norte 0 -- -- 85
2019-12-06 03:00:00 14.7 14 Norte 28 Norte 0 -- -- 84
2019-12-06 02:00:00 14.8 18 Norte 32 Norte 0.4 -- -- 86
2019-12-06 01:00:00 14.6 12 Norte 23 Norte 0.2 -- -- 87
2019-12-06 00:00:00 14.4 8 Norte 32 Norte 0.4 -- -- 86
2019-12-05 23:00:00 14.9 10 Noroeste 25 Noroeste 0 -- -- 78
2019-12-05 22:00:00 15 9 Norte 22 Noroeste 0 -- -- 78
2019-12-05 21:00:00 14.9 8 Noroeste 19 Noroeste 0 -- -- 79
2019-12-05 20:00:00 14.6 8 Norte 22 Norte 0 -- -- 79
2019-12-05 19:00:00 15 13 Noroeste 24 Noroeste 0 -- -- 77
2019-12-05 18:00:00 15.2 10 Noroeste 26 Norte 0 -- -- 78
2019-12-05 17:00:00 15.9 13 Norte 31 Noroeste 0 -- -- 72
2019-12-05 16:00:00 15.4 16 Norte 38 Noroeste 0 -- -- 83
2019-12-05 15:00:00 15.5 14 Noroeste 41 Noroeste 0 -- -- 79
2019-12-05 14:00:00 16.3 15 Noroeste 43 Norte 1 -- -- 83
2019-12-05 13:00:00 17.2 24 Noroeste 39 Noroeste 0 -- -- 66
2019-12-05 12:00:00 17.1 21 Noroeste 39 Noroeste 0 -- -- 69
2019-12-05 11:00:00 17.3 24 Noroeste 39 Noroeste 0 -- -- 67
2019-12-05 10:00:00 16.4 19 Noroeste 32 Noroeste 0 -- -- 71
2019-12-05 09:00:00 15.2 13 Noroeste 28 Norte 0 -- -- 81
2019-12-05 08:00:00 14 12 Noroeste 28 Noroeste 0 -- -- 77
2019-12-05 07:00:00 13.9 14 Noroeste 36 Noroeste 0 -- -- 78
2019-12-05 06:00:00 14 17 Noroeste 36 Noroeste 0 -- -- 82
2019-12-05 05:00:00 14.2 17 Noroeste 34 Noroeste 0 -- -- 76
2019-12-05 04:00:00 14.6 15 Noroeste 30 Noroeste 0 -- -- 79
2019-12-05 03:00:00 14.6 14 Noroeste 37 Norte 0 -- -- 79
2019-12-05 02:00:00 14.4 14 Norte 49 Noroeste 1.2 -- -- 93
2019-12-05 01:00:00 15 21 Noroeste 41 Oeste 10 -- -- 94
2019-12-05 00:00:00 16.5 16 Oeste 27 Oeste 0.4 -- -- 86
2019-12-04 23:00:00 16.2 19 Oeste 27 Oeste 0 -- -- 83
2019-12-04 22:00:00 15.3 14 Oeste 18 Oeste 0 -- -- 84
2019-12-04 21:00:00 15.1 11 Oeste 30 Oeste 0 -- -- 85
2019-12-04 20:00:00 16 15 Oeste 22 Oeste 0 -- -- 86
2019-12-04 19:00:00 16.1 9 Noroeste 24 Noroeste 0 -- -- 79
2019-12-04 18:00:00 16.8 12 Noroeste 28 Oeste 0 -- -- 77
2019-12-04 17:00:00 17.7 16 Noroeste 28 Noroeste 0 -- -- 67
2019-12-04 16:00:00 18.6 22 Noroeste 33 Noroeste 0 -- -- 64
2019-12-04 15:00:00 19.4 22 Noroeste 33 Noroeste 0 -- -- 57
2019-12-04 14:00:00 20.4 18 Noroeste 31 Oeste 0 -- -- 57
2019-12-04 13:00:00 19.9 20 Noroeste 31 Noroeste 0 -- -- 55
2019-12-04 12:00:00 19.5 17 Noroeste 27 Noroeste 0 -- -- 55
2019-12-04 11:00:00 17.6 13 Noroeste 24 Noroeste 0 -- -- 67
2019-12-04 10:00:00 16.4 6 Noroeste 14 Noroeste 0 -- -- 76
2019-12-04 09:00:00 13.9 2 Oeste 4 Sudoeste 0 -- -- 88
2019-12-04 08:00:00 11.6 0 Calma 3 Sur 0 -- -- 86
2019-12-04 07:00:00 11.9 0 Calma 4 Noroeste 0 -- -- 87
2019-12-04 06:00:00 12.6 3 Noroeste 8 Noroeste 0 -- -- 86
2019-12-04 05:00:00 12.8 2 Oeste 4 Noroeste 0 -- -- 86
2019-12-04 04:00:00 13.6 2 Oeste 9 Norte 0 -- -- 83
2019-12-04 03:00:00 15 5 Norte 19 Norte 0 -- -- 79
2019-12-04 02:00:00 15.5 7 Norte 24 Norte 0 -- -- 80
2019-12-04 01:00:00 15.6 9 Norte 21 Norte 0 -- -- 81
2019-12-04 00:00:00 15.2 5 Noroeste 14 Noroeste 0.2 -- -- 84
2019-12-03 23:00:00 15.2 4 Norte 10 Noroeste 0 -- -- 79
2019-12-03 22:00:00 15.4 3 Noroeste 10 Norte 0 -- -- 80
2019-12-03 21:00:00 15.7 3 Norte 15 Noroeste 0 -- -- 77
2019-12-03 20:00:00 16.1 8 Norte 19 Noroeste 0 -- -- 72
2019-12-03 19:00:00 16.4 10 Norte 25 Noroeste 0 -- -- 70
2019-12-03 18:00:00 17.1 12 Noroeste 29 Noroeste 0 -- -- 68
2019-12-03 17:00:00 17.4 11 Noroeste 28 Norte 0 -- -- 66
2019-12-03 16:00:00 17 12 Norte 31 Noroeste 0 -- -- 71
2019-12-03 15:00:00 17.3 15 Noroeste 42 Norte 0.2 -- -- 68
2019-12-03 14:00:00 18.7 15 Norte 32 Noroeste 0 -- -- 60
2019-12-03 13:00:00 17.6 18 Norte 40 Noroeste 0 -- -- 67
2019-12-03 12:00:00 19.1 19 Noroeste 38 Noroeste 0 -- -- 57
2019-12-03 11:00:00 18.9 15 Norte 34 Norte 0 -- -- 54
2019-12-03 10:00:00 18.1 18 Noroeste 34 Norte 0 -- -- 51
2019-12-03 09:00:00 16.6 11 Noroeste 23 Noroeste 0 -- -- 66
2019-12-03 08:00:00 15.4 7 Noroeste 30 Norte 0 -- -- 72
2019-12-03 07:00:00 15.5 13 Norte 26 Noroeste 0 -- -- 68
2019-12-03 06:00:00 15.4 15 Noroeste 33 Noroeste 0 -- -- 62
2019-12-03 05:00:00 15.9 17 Noroeste 30 Norte 0 -- -- 68
2019-12-03 04:00:00 15.6 13 Noroeste 29 Noroeste 0 -- -- 67
2019-12-03 03:00:00 15.2 12 Noroeste 27 Noroeste 0 -- -- 76
2019-12-03 02:00:00 15.2 13 Noroeste 27 Noroeste 0 -- -- 75
2019-12-03 01:00:00 15.5 14 Noroeste 30 Noroeste 0 -- -- 73
2019-12-03 00:00:00 15.6 14 Noroeste 27 Noroeste 0 -- -- 71
2019-12-02 23:00:00 15.5 9 Noroeste 17 Noroeste 0 -- -- 80
2019-12-02 22:00:00 15.7 13 Noroeste 33 Noroeste 0 -- -- 78
2019-12-02 21:00:00 16.4 15 Noroeste 29 Noroeste 0 -- -- 66
2019-12-02 20:00:00 16.2 14 Noroeste 31 Noroeste 0 -- -- 69
2019-12-02 19:00:00 16.6 15 Noroeste 34 Noroeste 0 -- -- 69
2019-12-02 18:00:00 16.7 18 Noroeste 34 Noroeste 0 -- -- 70
2019-12-02 17:00:00 17.1 15 Noroeste 33 Noroeste 0 -- -- 71
2019-12-02 16:00:00 17.3 17 Noroeste 33 Noroeste 0 -- -- 75
2019-12-02 15:00:00 17.2 18 Noroeste 38 Noroeste 0 -- -- 77
2019-12-02 14:00:00 17.4 11 Noroeste 41 Noroeste 0.4 -- -- 80
2019-12-02 13:00:00 19.3 21 Noroeste 37 Noroeste 0 -- -- 65
2019-12-02 12:00:00 18.3 13 Noroeste 37 Noroeste 0 -- -- 71
2019-12-02 11:00:00 19.1 17 Noroeste 35 Noroeste 0 -- -- 56
2019-12-02 10:00:00 18.7 16 Noroeste 33 Norte 0 -- -- 59
2019-12-02 09:00:00 17.2 14 Noroeste 23 Noroeste 0 -- -- 70
2019-12-02 08:00:00 15.4 8 Noroeste 24 Noroeste 0 -- -- 71
2019-12-02 07:00:00 15.2 12 Noroeste 19 Noroeste 0 -- -- 74
2019-12-02 06:00:00 14.9 9 Noroeste 16 Norte 0 -- -- 77
2019-12-02 05:00:00 15.6 9 Noroeste 17 Norte 0 -- -- 80
2019-12-02 04:00:00 16.3 11 Norte 23 Noroeste 0 -- -- 83
2019-12-02 03:00:00 15.9 6 Noroeste 15 Norte 0 -- -- 84
2019-12-02 02:00:00 16.9 7 Noroeste 18 Noroeste 0 -- -- 84
2019-12-02 01:00:00 17 6 Noroeste 17 Norte 0 -- -- 85
2019-12-02 00:00:00 15.7 5 Noroeste 10 Noroeste 0 -- -- 88
2019-12-01 23:00:00 15.2 4 Oeste 7 Noroeste 0 -- -- 85
2019-12-01 22:00:00 14.9 3 Oeste 6 Noroeste 0 -- -- 84
2019-12-01 21:00:00 15.5 4 Oeste 12 Noroeste 0 -- -- 79
2019-12-01 20:00:00 16.8 5 Norte 18 Norte 0 -- -- 78
2019-12-01 19:00:00 17.3 9 Norte 18 Norte 0 -- -- 78
2019-12-01 18:00:00 18.2 12 Norte 23 Norte 0 -- -- 70
2019-12-01 17:00:00 19.5 12 Norte 25 Nordeste 0 -- -- 68
2019-12-01 16:00:00 19.8 14 Norte 24 Nordeste 0 -- -- 62
2019-12-01 15:00:00 19.8 12 Nordeste 24 Nordeste 0 -- -- 65
2019-12-01 14:00:00 20.8 12 Nordeste 24 Nordeste 0 -- -- 63
2019-12-01 13:00:00 20.6 10 Norte 21 Nordeste 0 -- -- 63
2019-12-01 12:00:00 19.8 13 Nordeste 29 Nordeste 0 -- -- 65
2019-12-01 11:00:00 19.2 16 Nordeste 28 Nordeste 0 -- -- 68
2019-12-01 10:00:00 17.7 16 Nordeste 25 Nordeste 0 -- -- 78
2019-12-01 09:00:00 17.3 16 Nordeste 27 Este 0 -- -- 81
2019-12-01 08:00:00 16.8 15 Este 32 Este 0 -- -- 81
2019-12-01 07:00:00 16.8 20 Este 35 Este 0 -- -- 81
2019-12-01 06:00:00 16.8 20 Este 34 Este 0 -- -- 84
2019-12-01 05:00:00 16.7 17 Este 32 Este 0 -- -- 85
2019-12-01 04:00:00 16.7 18 Este 31 Nordeste 0 -- -- 86
2019-12-01 03:00:00 16.8 19 Este 31 Este 0 -- -- 86
2019-12-01 02:00:00 16.9 18 Este 30 Este 0 -- -- 87
2019-12-01 01:00:00 16.8 14 Este 30 Este 0 -- -- 88
2019-12-01 00:00:00 17 17 Este 31 Este 0 -- -- 87
2019-11-30 23:00:00 17.2 16 Este 29 Este 0 -- -- 87
2019-11-30 22:00:00 17.3 14 Este 23 Este 0 -- -- 88
2019-11-30 21:00:00 17.4 14 Este 23 Este 0 -- -- 88
2019-11-30 20:00:00 17.6 10 Este 20 Este 0 -- -- 87
2019-11-30 19:00:00 17.9 13 Este 26 Este 0 -- -- 86
2019-11-30 18:00:00 19.3 14 Este 22 Este 0 -- -- 79
2019-11-30 17:00:00 21.2 14 Este 22 Sudeste 0 -- -- 69
2019-11-30 16:00:00 22.3 12 Este 28 Este 0 -- -- 66
2019-11-30 15:00:00 22.8 16 Este 26 Este 0 -- -- 57
2019-11-30 14:00:00 23.2 16 Este 27 Este 0 -- -- 53
2019-11-30 13:00:00 22.8 20 Este 33 Este 0 -- -- 57
2019-11-30 12:00:00 22.2 22 Este 33 Este 0 -- -- 57
2019-11-30 11:00:00 21.5 20 Este 32 Este 0 -- -- 62
2019-11-30 10:00:00 20.3 18 Este 29 Este 0 -- -- 71
2019-11-30 09:00:00 18.7 18 Este 27 Este 0 -- -- 78
2019-11-30 08:00:00 17.1 14 Este 24 Este 0 -- -- 83
2019-11-30 07:00:00 16.9 12 Este 25 Este 0 -- -- 85
2019-11-30 06:00:00 16.7 13 Este 24 Este 0 -- -- 87
2019-11-30 05:00:00 16.7 15 Este 26 Este 0 -- -- 86
2019-11-30 04:00:00 16.8 13 Este 30 Este 0 -- -- 90
2019-11-30 03:00:00 16.8 15 Este 27 Este 0 -- -- 90
2019-11-30 02:00:00 17.1 17 Este 27 Este 0 -- -- 91
2019-11-30 01:00:00 17.4 12 Este 28 Este 0 -- -- 91
2019-11-30 00:00:00 17.7 17 Este 26 Este 0 -- -- 90
2019-11-29 23:00:00 17.9 15 Este 26 Este 0 -- -- 84
2019-11-29 22:00:00 17.9 15 Este 26 Este 0 -- -- 88
2019-11-29 21:00:00 18.2 14 Este 23 Este 0 -- -- 87
2019-11-29 20:00:00 18.3 13 Sudeste 22 Este 0 -- -- 78
2019-11-29 19:00:00 19 6 Este 15 Este 0 -- -- 66
2019-11-29 18:00:00 20.2 8 Este 21 Este 0 -- -- 71
2019-11-29 17:00:00 21.8 9 Este 24 Este 0 -- -- 62
2019-11-29 16:00:00 23.2 12 Este 21 Este 0 -- -- 56
2019-11-29 15:00:00 23.4 12 Nordeste 30 Este 0 -- -- 54
2019-11-29 14:00:00 23.1 21 Este 35 Este 0 -- -- 55
2019-11-29 13:00:00 22.6 22 Este 35 Este 0 -- -- 59
2019-11-29 12:00:00 22 24 Este 38 Este 0 -- -- 60
2019-11-29 11:00:00 21.3 23 Este 38 Este 0 -- -- 61
2019-11-29 10:00:00 20.1 22 Este 37 Este 0 -- -- 70
2019-11-29 09:00:00 18.6 23 Este 36 Este 0 -- -- 79
2019-11-29 08:00:00 17.1 21 Este 32 Este 0 -- -- 85
2019-11-29 07:00:00 17 22 Este 36 Este 0 -- -- 86
2019-11-29 06:00:00 16.9 25 Este 37 Este 0 -- -- 88
2019-11-29 05:00:00 16.7 21 Este 34 Este 0 -- -- 92
2019-11-29 04:00:00 16.9 12 Este 28 Este 0 -- -- 89
2019-11-29 03:00:00 17.4 20 Este 33 Este 0 -- -- 88
2019-11-29 02:00:00 17.4 18 Este 31 Este 0 -- -- 88
2019-11-29 01:00:00 17.4 12 Este 23 Este 0 -- -- 88
2019-11-29 00:00:00 17.5 12 Este 32 Este 0 -- -- 89
2019-11-28 23:00:00 17.6 18 Este 36 Este 0 -- -- 85
2019-11-28 22:00:00 17.7 17 Este 32 Este 0 -- -- 81
2019-11-28 21:00:00 17.5 12 Sudeste 22 Este 0 -- -- 84
2019-11-28 20:00:00 17.8 9 Este 20 Este 0 -- -- 76
2019-11-28 19:00:00 17.9 11 Este 24 Este 0 -- -- 79
2019-11-28 18:00:00 18.3 17 Este 26 Este 0 -- -- 79
2019-11-28 17:00:00 19.8 12 Este 28 Este 0 -- -- 71
2019-11-28 16:00:00 20.1 17 Este 32 Este 0 -- -- 68
2019-11-28 15:00:00 21.3 21 Este 31 Este 0 -- -- 63
2019-11-28 14:00:00 21.7 16 Este 28 Este 0 -- -- 62
2019-11-28 13:00:00 21.7 15 Este 30 Este 0 -- -- 59
2019-11-28 12:00:00 21 17 Este 27 Sudeste 0 -- -- 62
2019-11-28 11:00:00 20 15 Este 28 Este 0 -- -- 68
2019-11-28 10:00:00 18.8 18 Este 30 Este 0 -- -- 78
2019-11-28 09:00:00 17 21 Este 31 Este 0 -- -- 83
2019-11-28 08:00:00 16.5 15 Este 27 Este 0 -- -- 85
2019-11-28 07:00:00 16.4 14 Este 27 Este 0 -- -- 86
2019-11-28 06:00:00 16.6 13 Este 27 Este 0 -- -- 85
2019-11-28 05:00:00 16.6 17 Este 29 Este 0 -- -- 85
2019-11-28 04:00:00 16.5 14 Este 26 Nordeste 0 -- -- 86
2019-11-28 03:00:00 16.4 13 Este 23 Este 0 -- -- 85
2019-11-28 02:00:00 16.5 13 Este 28 Este 0 -- -- 85
2019-11-28 01:00:00 16.6 10 Este 22 Este 0 -- -- 86
2019-11-28 00:00:00 16.3 12 Este 21 Este 0 -- -- 87
2019-11-27 23:00:00 16.3 12 Este 20 Este 0 -- -- 87
2019-11-27 22:00:00 16.3 8 Este 17 Nordeste 0 -- -- 87
2019-11-27 21:00:00 17 13 Nordeste 19 Este 0 -- -- 85
2019-11-27 20:00:00 17.2 13 Nordeste 21 Nordeste 0 -- -- 85
2019-11-27 19:00:00 17.6 10 Nordeste 22 Este 0 -- -- 85
2019-11-27 18:00:00 18.1 14 Nordeste 21 Este 0 -- -- 82
2019-11-27 17:00:00 19.2 13 Nordeste 21 Nordeste 0 -- -- 76
2019-11-27 16:00:00 20 16 Este 24 Nordeste 0 -- -- 72
2019-11-27 15:00:00 20.9 15 Nordeste 24 Nordeste 0 -- -- 67
2019-11-27 14:00:00 21.1 11 Nordeste 21 Nordeste 0 -- -- 67
2019-11-27 13:00:00 20.6 13 Nordeste 24 Nordeste 0 -- -- 68
2019-11-27 05:00:00 15.7 11 Este 18 Este 0 -- -- 87
2019-11-27 04:00:00 15.6 8 Nordeste 16 Nordeste 0 -- -- 88
2019-11-27 03:00:00 15.7 9 Este 18 Nordeste 0 -- -- 89
2019-11-27 02:00:00 16.1 16 Este 24 Nordeste 0 -- -- 87
2019-11-27 01:00:00 16 14 Este 21 Este 0 -- -- 88
2019-11-27 00:00:00 15.7 5 Este 8 Sudeste 0 -- -- 88
2019-11-26 23:00:00 15.7 3 Nordeste 8 Este 0 -- -- 87
2019-11-26 22:00:00 16.4 6 Este 9 Este 0 -- -- 86
2019-11-26 21:00:00 17 3 Oeste 10 Noroeste 0 -- -- 84
2019-11-26 20:00:00 17.6 3 Nordeste 14 Nordeste 0 -- -- 84
2019-11-26 19:00:00 18 8 Este 15 Nordeste 0 -- -- 83
2019-11-26 18:00:00 18.6 9 Nordeste 25 Nordeste 0 -- -- 82
2019-11-26 17:00:00 19.7 16 Nordeste 24 Este 0 -- -- 74
2019-11-26 16:00:00 20.3 14 Nordeste 26 Nordeste 0 -- -- 70
2019-11-26 15:00:00 20.7 15 Nordeste 24 Nordeste 0 -- -- 68
2019-11-26 14:00:00 22 12 Este 25 Este 0 -- -- 60
2019-11-26 13:00:00 21.5 16 Este 23 Este 0 -- -- 60
2019-11-26 12:00:00 21 13 Nordeste 30 Este 0 -- -- 62
2019-11-26 11:00:00 19.4 17 Nordeste 29 Este 0 -- -- 74
2019-11-26 10:00:00 18.4 18 Nordeste 28 Este 0 -- -- 78
2019-11-26 09:00:00 17.2 17 Nordeste 28 Nordeste 0 -- -- 81
2019-11-26 08:00:00 16.4 13 Este 22 Este 0 -- -- 85
2019-11-26 07:00:00 16 14 Este 21 Este 0 -- -- 86
2019-11-26 06:00:00 14.7 9 Este 15 Este 0 -- -- 89
2019-11-26 05:00:00 14.4 4 Este 9 Nordeste 0 -- -- 88
2019-11-26 04:00:00 15.6 10 Nordeste 23 Nordeste 0 -- -- 85
2019-11-26 03:00:00 16.3 14 Este 25 Nordeste 0 -- -- 84
2019-11-26 02:00:00 16.7 12 Nordeste 23 Este 0 -- -- 85
2019-11-26 01:00:00 16.7 18 Este 27 Este 0 -- -- 84
2019-11-26 00:00:00 16.6 17 Este 26 Este 0 -- -- 84
2019-11-25 23:00:00 16.4 15 Este 25 Este 0 -- -- 84
2019-11-25 22:00:00 16.6 9 Este 14 Nordeste 0 -- -- 82
2019-11-25 21:00:00 16.9 8 Nordeste 20 Norte 0 -- -- 80
2019-11-25 20:00:00 17.3 13 Norte 23 Norte 0 -- -- 80
2019-11-25 19:00:00 17.6 14 Norte 23 Norte 0 -- -- 79
2019-11-25 18:00:00 17.9 12 Nordeste 20 Nordeste 0 -- -- 79
2019-11-25 17:00:00 18.3 12 Nordeste 24 Nordeste 0 -- -- 75
2019-11-25 16:00:00 19.5 15 Nordeste 27 Este 0 -- -- 69
2019-11-25 15:00:00 19.8 17 Nordeste 28 Nordeste 0 -- -- 68
2019-11-25 14:00:00 19.9 17 Nordeste 28 Este 0 -- -- 67
2019-11-25 13:00:00 19.7 18 Nordeste 28 Este 0 -- -- 69
2019-11-25 12:00:00 19 18 Nordeste 28 Este 0 -- -- 69
2019-11-25 11:00:00 18.2 17 Nordeste 29 Nordeste 0 -- -- 71
2019-11-25 10:00:00 17.3 15 Nordeste 23 Nordeste 0 -- -- 74
2019-11-25 09:00:00 16.7 9 Nordeste 23 Nordeste 0 -- -- 77
2019-11-25 08:00:00 15.8 8 Nordeste 18 Nordeste 0 -- -- 81
2019-11-25 07:00:00 14.9 8 Nordeste 12 Nordeste 0 -- -- 85
2019-11-25 06:00:00 13.8 0 Calma 5 Sudeste 0 -- -- 87
2019-11-25 05:00:00 12.9 0 Calma 7 Este 0 -- -- 88
2019-11-25 04:00:00 13 4 Sudeste 6 Sudeste 0 -- -- 88
2019-11-25 03:00:00 13.2 3 Sudeste 5 Nordeste 0 -- -- 85
2019-11-25 02:00:00 13.6 4 Sudeste 6 Sudeste 0 -- -- 85
2019-11-25 01:00:00 14 4 Sudeste 7 Nordeste 0 -- -- 82
2019-11-25 00:00:00 15.2 3 Este 13 Nordeste 0 -- -- 78
2019-11-24 23:00:00 16.1 4 Nordeste 15 Nordeste 0 -- -- 75
2019-11-24 22:00:00 17.1 10 Nordeste 24 Nordeste 0 -- -- 71
2019-11-24 21:00:00 17.2 12 Norte 28 Norte 0 -- -- 71
2019-11-24 20:00:00 17.8 15 Norte 27 Norte 0 -- -- 70
2019-11-24 19:00:00 17.7 14 Norte 27 Norte 0 -- -- 70
2019-11-24 18:00:00 17.8 11 Norte 30 Norte 0 -- -- 69
2019-11-24 17:00:00 18.5 16 Norte 33 Norte 0 -- -- 66
2019-11-24 16:00:00 19.5 16 Norte 32 Norte 0 -- -- 63
2019-11-24 15:00:00 20 15 Norte 33 Norte 0 -- -- 62
2019-11-24 14:00:00 20.4 15 Norte 28 Norte 0 -- -- 60
2019-11-24 13:00:00 19.5 15 Norte 30 Norte 0 -- -- 64
2019-11-24 12:00:00 19.6 15 Norte 30 Noroeste 0 -- -- 65
2019-11-24 11:00:00 19.4 18 Norte 28 Norte 0 -- -- 66
2019-11-24 10:00:00 18.1 17 Norte 27 Norte 0 -- -- 79
2019-11-24 09:00:00 17.9 15 Norte 27 Norte 0 -- -- 79
2019-11-24 08:00:00 17 11 Norte 21 Norte 0 -- -- 81
2019-11-24 07:00:00 16.9 10 Norte 21 Norte 0 -- -- 82
2019-11-24 06:00:00 17 10 Norte 22 Norte 0 -- -- 81
2019-11-24 05:00:00 17 11 Norte 23 Norte 0 -- -- 82
2019-11-24 04:00:00 17.1 10 Norte 20 Norte 0 -- -- 87
2019-11-24 03:00:00 17.1 9 Norte 19 Norte 0 -- -- 87
2019-11-24 02:00:00 16.8 8 Norte 22 Norte 0 -- -- 86
2019-11-24 01:00:00 17.1 12 Norte 26 Nordeste 0 -- -- 88
2019-11-24 00:00:00 17.2 8 Norte 23 Norte 0 -- -- 86
2019-11-23 23:00:00 17.3 8 Norte 20 Norte 0 -- -- 87
2019-11-23 22:00:00 17.4 9 Norte 17 Norte 0 -- -- 85
2019-11-23 21:00:00 17.7 11 Norte 23 Norte 0 -- -- 84
2019-11-23 20:00:00 17.8 10 Norte 21 Norte 0 -- -- 86
2019-11-23 19:00:00 17.9 9 Norte 24 Noroeste 0 -- -- 85
2019-11-23 18:00:00 18.5 10 Norte 24 Norte 0 -- -- 82
2019-11-23 17:00:00 19.2 15 Norte 28 Norte 0 -- -- 78
2019-11-23 16:00:00 19.4 16 Norte 32 Norte 0 -- -- 82
2019-11-23 15:00:00 19.8 15 Norte 31 Norte 0 -- -- 86
2019-11-23 14:00:00 19.3 15 Norte 33 Noroeste 0.4 -- -- 90
2019-11-23 13:00:00 21.7 15 Noroeste 28 Noroeste 0 -- -- 78
2019-11-23 12:00:00 21.2 15 Noroeste 26 Noroeste 0 -- -- 82
2019-11-23 11:00:00 19.7 12 Noroeste 26 Noroeste 0 -- -- 87
2019-11-23 10:00:00 19.7 17 Noroeste 27 Noroeste 0 -- -- 89
2019-11-23 09:00:00 18.6 12 Noroeste 23 Noroeste 0 -- -- 91
2019-11-23 08:00:00 18.5 13 Noroeste 21 Oeste 0 -- -- 94
2019-11-23 07:00:00 17.8 10 Noroeste 15 Noroeste 0 -- -- 94
2019-11-23 06:00:00 17.6 8 Oeste 25 Oeste 0 -- -- 92
2019-11-23 05:00:00 17.7 9 Oeste 16 Oeste 0 -- -- 93
2019-11-23 04:00:00 17 10 Oeste 20 Noroeste 0 -- -- 89
2019-11-23 03:00:00 18.1 13 Noroeste 30 Oeste 0 -- -- 92
2019-11-23 02:00:00 18.3 14 Oeste 24 Oeste 0 -- -- 93
2019-11-23 01:00:00 18.3 18 Oeste 26 Oeste 0 -- -- 93
2019-11-23 00:00:00 18 12 Oeste 18 Oeste 0 -- -- 93
2019-11-22 23:00:00 18 15 Oeste 23 Oeste 0 -- -- 92
2019-11-22 22:00:00 18.2 10 Oeste 19 Oeste 0 -- -- 89
2019-11-22 21:00:00 18 11 Oeste 16 Oeste 0 -- -- 86
2019-11-22 20:00:00 17.6 9 Oeste 15 Oeste 0 -- -- 86
2019-11-22 19:00:00 17.5 9 Oeste 26 Oeste 0 -- -- 83
2019-11-22 18:00:00 18.5 17 Oeste 24 Oeste 0 -- -- 78
2019-11-22 17:00:00 19.6 16 Oeste 27 Oeste 0 -- -- 73
2019-11-22 16:00:00 20.7 15 Noroeste 27 Oeste 0 -- -- 70
2019-11-22 15:00:00 21.5 17 Noroeste 28 Noroeste 0 -- -- 68
2019-11-22 14:00:00 21 18 Noroeste 30 Oeste 0 -- -- 70
2019-11-22 13:00:00 20.6 18 Noroeste 29 Noroeste 0 -- -- 76
2019-11-22 12:00:00 20.4 18 Noroeste 24 Noroeste 0 -- -- 80
2019-11-22 11:00:00 19.6 11 Noroeste 20 Noroeste 0 -- -- 87
2019-11-22 10:00:00 19 11 Noroeste 24 Noroeste 0 -- -- 92
2019-11-22 09:00:00 18.2 14 Noroeste 22 Oeste 0 -- -- 95
2019-11-22 08:00:00 17.4 16 Oeste 32 Oeste 0.2 -- -- 95
2019-11-22 07:00:00 17.5 19 Oeste 35 Oeste 2.8 -- -- 94
2019-11-22 06:00:00 17.8 23 Oeste 31 Oeste 0 -- -- 89
2019-11-22 05:00:00 17.9 18 Oeste 27 Sudoeste 0 -- -- 82
2019-11-22 04:00:00 18.3 21 Sudoeste 30 Sudoeste 0 -- -- 81
2019-11-22 03:00:00 17.9 18 Sudoeste 27 Sudoeste 0 -- -- 83
2019-11-22 02:00:00 17.7 16 Sudoeste 27 Sudoeste 0 -- -- 82
2019-11-22 01:00:00 17.3 14 Sudoeste 21 Sudoeste 0 -- -- 84
2019-11-22 00:00:00 16.4 10 Oeste 16 Oeste 0 -- -- 84
2019-11-21 23:00:00 16.7 10 Oeste 18 Sudoeste 0 -- -- 85
2019-11-21 22:00:00 16.7 13 Oeste 20 Oeste 0 -- -- 84
2019-11-21 21:00:00 16.7 11 Oeste 18 Sudoeste 0 -- -- 83
2019-11-21 20:00:00 17.3 13 Oeste 23 Oeste 0 -- -- 81
2019-11-21 19:00:00 17.8 17 Oeste 26 Oeste 0 -- -- 78
2019-11-21 18:00:00 18.7 20 Oeste 31 Oeste 0 -- -- 72
2019-11-21 17:00:00 20 19 Sudoeste 30 Oeste 0 -- -- 64
2019-11-21 16:00:00 21.1 18 Oeste 30 Oeste 0 -- -- 61
2019-11-21 15:00:00 21.3 20 Oeste 27 Oeste 0 -- -- 61
2019-11-21 14:00:00 20.8 18 Oeste 30 Oeste 0 -- -- 63
2019-11-21 13:00:00 20.6 15 Oeste 24 Oeste 0 -- -- 64
2019-11-21 12:00:00 20.4 17 Oeste 27 Oeste 0 -- -- 65
2019-11-21 11:00:00 19.7 15 Oeste 27 Noroeste 0 -- -- 72
2019-11-21 10:00:00 18.5 12 Oeste 18 Noroeste 0 -- -- 83
2019-11-21 09:00:00 18 13 Oeste 18 Oeste 0 -- -- 89
2019-11-21 08:00:00 16.5 8 Oeste 13 Oeste 0 -- -- 90
2019-11-21 07:00:00 -- -- -- -- -- -- -- -- --
2019-11-21 06:00:00 -- -- -- -- -- -- -- -- --
2019-11-21 05:00:00 -- -- -- -- -- -- -- -- --
2019-11-21 04:00:00 -- -- -- -- -- -- -- -- --
2019-11-21 03:00:00 -- -- -- -- -- -- -- -- --
2019-11-21 02:00:00 -- -- -- -- -- -- -- -- --
2019-11-21 01:00:00 -- -- -- -- -- -- -- -- --
2019-11-21 00:00:00 -- -- -- -- -- -- -- -- --
2019-11-20 23:00:00 -- -- -- -- -- -- -- -- --
2019-11-20 22:00:00 -- -- -- -- -- -- -- -- --
2019-11-20 21:00:00 -- -- -- -- -- -- -- -- --
2019-11-20 20:00:00 17.3 16 Oeste 32 Oeste 0 -- -- 85
2019-11-20 19:00:00 18.4 17 Oeste 29 Oeste 0 -- -- 80
2019-11-20 18:00:00 18.6 18 Oeste 28 Oeste 0 -- -- 78
2019-11-20 17:00:00 19.1 21 Oeste 30 Oeste 0 -- -- 75
2019-11-20 16:00:00 20 22 Oeste 35 Oeste 0 -- -- 71
2019-11-20 15:00:00 20.6 22 Oeste 33 Sudoeste 0 -- -- 67
2019-11-20 14:00:00 20.4 18 Oeste 28 Oeste 0 -- -- 67
2019-11-20 13:00:00 21 21 Oeste 31 Oeste 0 -- -- 65
2019-11-20 12:00:00 21.8 17 Oeste 27 Sudoeste 0 -- -- 66
2019-11-20 11:00:00 20.1 16 Oeste 23 Sudoeste 0 -- -- 71
2019-11-20 10:00:00 18.5 13 Oeste 19 Oeste 0 -- -- 81
2019-11-20 09:00:00 17 8 Oeste 12 Oeste 0 -- -- 89
2019-11-20 08:00:00 14.4 0 Calma 3 Este 0 -- -- 92
2019-11-20 07:00:00 13.8 0 Calma 3 Nordeste 0 -- -- 90
2019-11-20 06:00:00 14.5 0 Calma 3 Sudoeste 0 -- -- 91
2019-11-20 05:00:00 14.8 2 Oeste 5 Sudoeste 0.2 -- -- 92
2019-11-20 04:00:00 13.6 3 Oeste 4 Sudoeste 0 -- -- 88
2019-11-20 03:00:00 13.2 0 Calma 3 Sudoeste 0 -- -- 89
2019-11-20 02:00:00 12.8 0 Calma 3 Oeste 0 -- -- 87
2019-11-20 01:00:00 13.7 0 Calma 3 Sudoeste 0 -- -- 87
2019-11-20 00:00:00 14.3 3 Sudoeste 4 Sudoeste 0 -- -- 87
2019-11-19 23:00:00 15.1 2 Sudoeste 4 Oeste 0 -- -- 85
2019-11-19 22:00:00 15.5 2 Oeste 6 Noroeste 0 -- -- 85
2019-11-19 21:00:00 15.6 2 Sudoeste 4 Oeste 0 -- -- 82
2019-11-19 20:00:00 15.9 0 Calma 6 Norte 0 -- -- 80
2019-11-19 19:00:00 16.9 3 Noroeste 13 Noroeste 0 -- -- 80
2019-11-19 18:00:00 17.7 6 Noroeste 18 Noroeste 0 -- -- 76
2019-11-19 17:00:00 18.6 8 Norte 21 Norte 0 -- -- 71
2019-11-19 16:00:00 19.2 11 Noroeste 27 Noroeste 0 -- -- 68
2019-11-19 15:00:00 19.8 13 Norte 28 Norte 0 -- -- 66
2019-11-19 14:00:00 20.5 15 Noroeste 27 Norte 0 -- -- 64
2019-11-19 13:00:00 20.1 13 Norte 28 Norte 0 -- -- 66
2019-11-19 12:00:00 19.6 12 Norte 28 Noroeste 0 -- -- 73
2019-11-19 11:00:00 19.1 14 Norte 29 Norte 0 -- -- 75
2019-11-19 10:00:00 17.8 10 Norte 26 Noroeste 0 -- -- 83
2019-11-19 09:00:00 16.9 6 Noroeste 10 Noroeste 0 -- -- 89
2019-11-19 08:00:00 15.5 3 Oeste 9 Norte 0 -- -- 92
2019-11-19 07:00:00 15.3 2 Noroeste 6 Noroeste 0 -- -- 91
2019-11-19 06:00:00 15.9 6 Noroeste 14 Noroeste 0.2 -- -- 92
2019-11-19 05:00:00 15.3 4 Oeste 8 Noroeste 1.6 -- -- 91
2019-11-19 04:00:00 14.3 4 Noroeste 6 Oeste 0 -- -- 90
2019-11-19 03:00:00 13.8 4 Oeste 5 Oeste 0 -- -- 89
2019-11-19 02:00:00 13.8 3 Sudoeste 5 Sudoeste 0 -- -- 87
2019-11-19 01:00:00 14.3 3 Oeste 5 Sudoeste 0 -- -- 87
2019-11-19 00:00:00 14.1 4 Sudoeste 6 Sudoeste 0 -- -- 86
2019-11-18 23:00:00 14.3 4 Oeste 5 Oeste 0 -- -- 84
2019-11-18 22:00:00 14.4 0 Calma 6 Nordeste 0 -- -- 79
2019-11-18 21:00:00 16.1 4 Nordeste 13 Norte 0 -- -- 76
2019-11-18 20:00:00 16.5 5 Norte 18 Norte 0 -- -- 77
2019-11-18 19:00:00 17.3 10 Norte 22 Norte 0 -- -- 75
2019-11-18 18:00:00 17.7 11 Norte 21 Norte 0 -- -- 72
2019-11-18 17:00:00 18.4 9 Nordeste 19 Nordeste 0 -- -- 68
2019-11-18 16:00:00 18.8 11 Nordeste 21 Este 0 -- -- 64
2019-11-18 15:00:00 18.7 9 Nordeste 21 Nordeste 0 -- -- 64
2019-11-18 14:00:00 19.2 12 Nordeste 24 Este 0 -- -- 62
2019-11-18 13:00:00 19.4 16 Nordeste 26 Nordeste 0 -- -- 58
2019-11-18 12:00:00 18.9 14 Nordeste 28 Nordeste 0 -- -- 63
2019-11-18 11:00:00 18.5 15 Nordeste 27 Nordeste 0 -- -- 63
2019-11-18 10:00:00 16.5 13 Nordeste 21 Nordeste 0 -- -- 75
2019-11-18 09:00:00 15.3 10 Nordeste 15 Nordeste 0 -- -- 81
2019-11-18 08:00:00 12.9 6 Nordeste 10 Nordeste 0 -- -- 85
2019-11-18 07:00:00 13.2 8 Nordeste 12 Nordeste 0 -- -- 84
2019-11-18 06:00:00 13.2 8 Nordeste 14 Nordeste 0 -- -- 83
2019-11-18 05:00:00 13.3 5 Este 15 Nordeste 0 -- -- 82
2019-11-18 04:00:00 13.6 11 Este 17 Nordeste 0 -- -- 81
2019-11-18 03:00:00 14 12 Este 22 Este 0 -- -- 78
2019-11-18 02:00:00 13.8 9 Este 17 Este 0 -- -- 78
2019-11-18 01:00:00 13.6 10 Este 18 Este 0 -- -- 78
2019-11-18 00:00:00 13.1 5 Este 9 Este 0 -- -- 78
2019-11-17 23:00:00 12.4 4 Sudeste 8 Sudeste 0 -- -- 77
2019-11-17 22:00:00 13.2 2 Este 10 Este 0 -- -- 73
2019-11-17 21:00:00 14.2 6 Nordeste 16 Nordeste 0 -- -- 69
2019-11-17 20:00:00 14.8 9 Nordeste 18 Nordeste 0 -- -- 68
2019-11-17 19:00:00 15.3 12 Nordeste 25 Este 0 -- -- 66
2019-11-17 18:00:00 16 15 Nordeste 29 Este 0 -- -- 63
2019-11-17 17:00:00 17 21 Nordeste 32 Este 0 -- -- 59
2019-11-17 16:00:00 17.6 23 Este 37 Este 0 -- -- 56
2019-11-17 15:00:00 18 22 Este 40 Nordeste 0 -- -- 56
2019-11-17 14:00:00 18.2 26 Nordeste 39 Nordeste 0 -- -- 50
2019-11-17 13:00:00 18.5 24 Nordeste 43 Este 0 -- -- 56
2019-11-17 12:00:00 18 27 Nordeste 45 Nordeste 0 -- -- 57
2019-11-17 11:00:00 17.4 23 Nordeste 43 Nordeste 0 -- -- 63
2019-11-17 10:00:00 16.8 24 Nordeste 39 Este 0 -- -- 65
2019-11-17 09:00:00 15.9 17 Nordeste 32 Nordeste 0 -- -- 69
2019-11-17 08:00:00 14.8 11 Nordeste 31 Nordeste 0 -- -- 66
2019-11-17 07:00:00 15.2 15 Nordeste 28 Nordeste 0 -- -- 63
2019-11-17 06:00:00 15.4 18 Nordeste 31 Nordeste 0 -- -- 67
2019-11-17 05:00:00 15.2 12 Nordeste 22 Nordeste 0 -- -- 69
2019-11-17 04:00:00 15.5 14 Nordeste 28 Nordeste 0 -- -- 69
2019-11-17 03:00:00 15.4 15 Nordeste 26 Nordeste 0 -- -- 67
2019-11-17 02:00:00 14.9 14 Nordeste 26 Nordeste 0 -- -- 66
2019-11-17 01:00:00 14.5 10 Norte 25 Nordeste 0 -- -- 69
2019-11-17 00:00:00 15.1 15 Nordeste 28 Nordeste 0 -- -- 70
2019-11-16 23:00:00 15.1 13 Norte 27 Norte 0 -- -- 67
2019-11-16 22:00:00 15.5 14 Nordeste 31 Nordeste 0 -- -- 66
2019-11-16 21:00:00 15.3 12 Nordeste 35 Nordeste 0 -- -- 73
2019-11-16 20:00:00 15.4 15 Nordeste 30 Nordeste 0 -- -- 71
2019-11-16 19:00:00 15.7 16 Nordeste 36 Nordeste 0 -- -- 74
2019-11-16 18:00:00 16.8 19 Nordeste 35 Norte 0 -- -- 67
2019-11-16 17:00:00 17.5 21 Nordeste 39 Nordeste 0 -- -- 62
2019-11-16 16:00:00 18.4 24 Norte 41 Nordeste 0 -- -- 57
2019-11-16 15:00:00 17.7 19 Norte 41 Norte 0 -- -- 66
2019-11-16 14:00:00 17.7 21 Norte 44 Norte 0 -- -- 59
2019-11-16 13:00:00 18.6 22 Norte 44 Norte 0 -- -- 59
2019-11-16 12:00:00 18.4 20 Norte 40 Norte 0 -- -- 57
2019-11-16 11:00:00 17.6 23 Norte 44 Norte 0 -- -- 60
2019-11-16 10:00:00 17.5 21 Norte 35 Norte 0 -- -- 62
2019-11-16 09:00:00 15.9 15 Norte 40 Norte 0.2 -- -- 72
2019-11-16 08:00:00 15.2 12 Norte 30 Norte 0 -- -- 72
2019-11-16 07:00:00 15.4 18 Norte 33 Nordeste 0 -- -- 66
2019-11-16 06:00:00 15.2 16 Norte 34 Nordeste 0.2 -- -- 77
2019-11-16 05:00:00 15.3 15 Norte 41 Nordeste 0 -- -- 71
2019-11-16 04:00:00 15.7 14 Norte 35 Norte 0 -- -- 68
2019-11-16 03:00:00 15.7 14 Norte 27 Norte 0 -- -- 68
2019-11-16 02:00:00 15.7 14 Norte 33 Nordeste 0 -- -- 64
2019-11-16 01:00:00 15.2 10 Nordeste 31 Nordeste 0 -- -- 70
2019-11-16 00:00:00 14.8 8 Nordeste 18 Nordeste 0 -- -- 76
2019-11-15 23:00:00 15.2 10 Norte 25 Norte 0 -- -- 75
2019-11-15 22:00:00 16 15 Norte 28 Nordeste 0 -- -- 66
2019-11-15 21:00:00 16 15 Norte 35 Norte 0 -- -- 66
2019-11-15 20:00:00 16.2 14 Norte 29 Norte 0 -- -- 68
2019-11-15 19:00:00 16.6 20 Norte 35 Norte 0 -- -- 66
2019-11-15 18:00:00 16.9 15 Norte 33 Norte 0 -- -- 65
2019-11-15 17:00:00 17.5 18 Norte 42 Norte 0 -- -- 60
2019-11-15 16:00:00 18.6 22 Norte 39 Norte 0 -- -- 56
2019-11-15 15:00:00 19.2 20 Norte 41 Norte 0 -- -- 52
2019-11-15 14:00:00 19 22 Norte 36 Norte 0 -- -- 54
2019-11-15 13:00:00 19 20 Norte 40 Nordeste 0 -- -- 55
2019-11-15 12:00:00 19.4 23 Norte 40 Nordeste 0 -- -- 55
2019-11-15 11:00:00 18.5 22 Norte 35 Nordeste 0 -- -- 58
2019-11-15 10:00:00 16.4 15 Nordeste 29 Norte 0 -- -- 80
2019-11-15 09:00:00 16.7 21 Norte 37 Norte 0 -- -- 82
2019-11-15 08:00:00 15.6 12 Norte 35 Norte 0 -- -- 87
2019-11-15 07:00:00 16.6 12 Norte 25 Norte 0 -- -- 77
2019-11-15 06:00:00 16.8 9 Norte 18 Norte 0 -- -- 76
2019-11-15 05:00:00 16.9 11 Norte 19 Norte 0 -- -- 74
2019-11-15 04:00:00 16.7 9 Norte 16 Norte 0 -- -- 72
2019-11-15 03:00:00 16.4 7 Norte 17 Nordeste 0 -- -- 65
2019-11-15 02:00:00 17.1 10 Nordeste 33 Nordeste 0 -- -- 61
2019-11-15 01:00:00 17.4 16 Norte 31 Nordeste 0 -- -- 67
2019-11-15 00:00:00 17.6 15 Nordeste 24 Nordeste 0 -- -- 64
2019-11-14 23:00:00 17.3 9 Norte 26 Nordeste 0 -- -- 65
2019-11-14 22:00:00 17.4 15 Nordeste 26 Nordeste 0 -- -- 66
2019-11-14 21:00:00 17.6 15 Nordeste 28 Nordeste 0 -- -- 70
2019-11-14 20:00:00 17.9 16 Nordeste 32 Nordeste 0 -- -- 72
2019-11-14 19:00:00 18.4 18 Nordeste 35 Nordeste 0 -- -- 66
2019-11-14 18:00:00 19 15 Nordeste 29 Norte 0 -- -- 72
2019-11-14 17:00:00 19.3 15 Nordeste 36 Nordeste 0 -- -- 71
2019-11-14 16:00:00 20.1 19 Nordeste 36 Este 0 -- -- 62
2019-11-14 15:00:00 20.5 23 Nordeste 36 Nordeste 0 -- -- 59
2019-11-14 14:00:00 21.2 22 Nordeste 37 Norte 0 -- -- 58
2019-11-14 13:00:00 20.5 20 Nordeste 37 Norte 0 -- -- 56
2019-11-14 12:00:00 20.6 19 Nordeste 34 Este 0 -- -- 61
2019-11-14 11:00:00 19.7 18 Nordeste 30 Nordeste 0 -- -- 71
2019-11-14 10:00:00 -- 15 Nordeste 28 Nordeste 0 -- -- --
2019-11-14 09:00:00 17.4 12 Nordeste 21 Nordeste 0 -- -- 79
2019-11-14 08:00:00 16.3 7 Nordeste 21 Norte 0 -- -- 84
2019-11-14 07:00:00 16.4 12 Nordeste 24 Nordeste 0 -- -- 82
2019-11-14 06:00:00 16.6 13 Nordeste 27 Nordeste 0 -- -- 82
2019-11-14 05:00:00 16.2 10 Nordeste 18 Norte 0 -- -- 82
2019-11-14 04:00:00 15.3 6 Nordeste 14 Nordeste 0 -- -- 83
2019-11-14 03:00:00 14.1 0 Calma 8 Este 0 -- -- 81
2019-11-14 02:00:00 14.8 3 Este 15 Nordeste 0 -- -- 78
2019-11-14 01:00:00 15.8 8 Nordeste 14 Nordeste 0 -- -- 77
2019-11-14 00:00:00 16.1 6 Norte 23 Nordeste 0 -- -- 75
2019-11-13 23:00:00 16.6 11 Nordeste 27 Nordeste 0 -- -- 73
2019-11-13 22:00:00 16.9 14 Nordeste 30 Nordeste 0 -- -- 73
2019-11-13 21:00:00 17 15 Nordeste 23 Nordeste 0 -- -- 73
2019-11-13 20:00:00 17.2 12 Norte 33 Norte 0 -- -- 73
2019-11-13 19:00:00 17.6 21 Norte 37 Norte 0 -- -- 71
2019-11-13 18:00:00 18.1 22 Norte 38 Norte 0 -- -- 68
2019-11-13 17:00:00 19 24 Norte 42 Norte 0 -- -- 65
2019-11-13 16:00:00 20.3 25 Norte 44 Norte 0 -- -- 62
2019-11-13 15:00:00 20.8 24 Norte 41 Norte 0 -- -- 63
2019-11-13 14:00:00 22.2 24 Nordeste 41 Norte 0 -- -- 54
2019-11-13 13:00:00 21.8 24 Nordeste 43 Nordeste 0 -- -- 54
2019-11-13 12:00:00 21 28 Nordeste 45 Nordeste 0 -- -- 59
2019-11-13 11:00:00 20.5 26 Nordeste 46 Nordeste 0 -- -- 63
2019-11-13 10:00:00 19.5 27 Nordeste 48 Nordeste 0 -- -- 66
2019-11-13 09:00:00 18.1 23 Nordeste 38 Nordeste 0 -- -- 73
2019-11-13 08:00:00 16.8 15 Norte 30 Norte 0 -- -- 81
2019-11-13 07:00:00 16.7 19 Norte 37 Norte 0 -- -- 82
2019-11-13 06:00:00 16.9 20 Norte 39 Norte 0 -- -- 83
2019-11-13 05:00:00 16.8 15 Norte 30 Norte 0 -- -- 83
2019-11-13 04:00:00 16.7 16 Norte 26 Norte 0 -- -- 84
2019-11-13 03:00:00 16.8 13 Norte 31 Norte 0 -- -- 84
2019-11-13 02:00:00 16.9 18 Norte 35 Norte 0 -- -- 84
2019-11-13 01:00:00 17 21 Norte 35 Norte 0 -- -- 82
2019-11-13 00:00:00 17.3 19 Norte 33 Norte 0 -- -- 79
2019-11-12 23:00:00 17.3 15 Norte 37 Norte 0 -- -- 79
2019-11-12 22:00:00 17.3 19 Norte 33 Norte 0 -- -- 80
2019-11-12 21:00:00 17.4 18 Norte 33 Norte 0 -- -- 78
2019-11-12 20:00:00 17.5 14 Norte 38 Norte 0 -- -- 77
2019-11-12 19:00:00 17.9 24 Norte 38 Norte 0 -- -- 75
2019-11-12 18:00:00 18.4 22 Norte 45 Nordeste 0 -- -- 72
2019-11-12 17:00:00 19.8 28 Norte 46 Norte 0 -- -- 66
2019-11-12 16:00:00 20.7 23 Norte 45 Norte 0 -- -- 66
2019-11-12 15:00:00 21.5 24 Norte 43 Norte 0 -- -- 64
2019-11-12 14:00:00 22.3 26 Norte 44 Norte 0 -- -- 56
2019-11-12 13:00:00 22.1 25 Norte 45 Nordeste 0 -- -- 59
2019-11-12 12:00:00 21.2 21 Norte 36 Norte 0 -- -- 68
2019-11-12 11:00:00 19.8 19 Norte 39 Nordeste 0 -- -- 79
2019-11-12 10:00:00 19.6 22 Norte 38 Norte 0 -- -- 78
2019-11-12 09:00:00 19.3 22 Norte 36 Norte 0 -- -- 77
2019-11-12 08:00:00 18.5 19 Nordeste 33 Nordeste 0 -- -- 78
2019-11-12 07:00:00 18.2 15 Nordeste 31 Nordeste 0 -- -- 78
2019-11-12 06:00:00 18.1 15 Nordeste 38 Nordeste 0 -- -- 79
2019-11-12 05:00:00 18 18 Norte 42 Norte 0 -- -- 81
2019-11-12 04:00:00 17.8 20 Norte 40 Norte 0 -- -- 80
2019-11-12 03:00:00 17.5 18 Norte 34 Norte 0 -- -- 81
2019-11-12 02:00:00 17.5 21 Norte 33 Norte 0 -- -- 79
2019-11-12 01:00:00 17.7 19 Norte 42 Norte 0 -- -- 76
2019-11-12 00:00:00 18 24 Norte 45 Norte 0 -- -- 76
2019-11-11 23:00:00 18 22 Norte 42 Norte 0 -- -- 76
2019-11-11 22:00:00 18.3 27 Norte 51 Norte 0 -- -- 77
2019-11-11 21:00:00 18.3 24 Norte 45 Norte 0 -- -- 78
2019-11-11 20:00:00 18.5 20 Norte 44 Norte 0 -- -- 75
2019-11-11 19:00:00 18.6 24 Norte 45 Noroeste 0 -- -- 74
2019-11-11 18:00:00 18.7 28 Norte 48 Norte 0 -- -- 73
2019-11-11 17:00:00 19.4 24 Norte 52 Norte 0 -- -- 73
2019-11-11 16:00:00 20.3 30 Norte 57 Norte 0 -- -- 68
2019-11-11 15:00:00 20.9 32 Norte 59 Norte 0 -- -- 65
2019-11-11 14:00:00 21.3 31 Norte 55 Norte 0 -- -- 61
2019-11-11 13:00:00 21.7 31 Norte 50 Norte 0 -- -- 57
2019-11-11 12:00:00 20.9 28 Norte 50 Norte 0 -- -- 59
2019-11-11 11:00:00 19.9 28 Norte 47 Norte 0 -- -- 63
2019-11-11 10:00:00 19.4 24 Norte 42 Norte 0 -- -- 64
2019-11-11 09:00:00 18.4 26 Norte 42 Nordeste 0 -- -- 69
2019-11-11 08:00:00 17.2 23 Norte 36 Nordeste 0 -- -- 71
2019-11-11 07:00:00 16.9 18 Norte 33 Norte 0 -- -- 74
2019-11-11 06:00:00 16.9 18 Norte 29 Norte 0 -- -- 74
2019-11-11 05:00:00 17 14 Norte 24 Norte 0 -- -- 76
2019-11-11 04:00:00 17 16 Nordeste 31 Nordeste 0 -- -- 71
2019-11-11 03:00:00 17.1 18 Norte 38 Norte 0 -- -- 68
2019-11-11 02:00:00 17.2 19 Nordeste 41 Norte 0 -- -- 66
2019-11-11 01:00:00 17.6 15 Norte 29 Norte 0 -- -- 68
2019-11-11 00:00:00 17.3 18 Norte 39 Nordeste 0 -- -- 68
2019-11-10 23:00:00 17.7 17 Nordeste 42 Norte 0 -- -- 69
2019-11-10 22:00:00 18 18 Nordeste 35 Nordeste 0 -- -- 72
2019-11-10 21:00:00 17.8 17 Nordeste 33 Nordeste 0 -- -- 70
2019-11-10 20:00:00 17.5 19 Nordeste 33 Nordeste 0 -- -- 70
2019-11-10 19:00:00 17.9 17 Nordeste 33 Nordeste 0 -- -- 67
2019-11-10 18:00:00 19.1 19 Nordeste 36 Nordeste 0 -- -- 67
2019-11-10 17:00:00 20.4 25 Nordeste 41 Nordeste 0 -- -- 66
2019-11-10 16:00:00 20.9 27 Nordeste 40 Este 0 -- -- 68
2019-11-10 15:00:00 21.3 26 Nordeste 46 Nordeste 0 -- -- 65
2019-11-10 14:00:00 21.4 31 Nordeste 50 Nordeste 0 -- -- 63
2019-11-10 13:00:00 21.4 27 Nordeste 46 Nordeste 0 -- -- 63
2019-11-10 12:00:00 20.7 31 Nordeste 52 Nordeste 0 -- -- 63
2019-11-10 11:00:00 20.3 31 Nordeste 48 Nordeste 0 -- -- 59
2019-11-10 10:00:00 19.1 28 Nordeste 45 Nordeste 0 -- -- 64
2019-11-10 09:00:00 17.6 23 Nordeste 44 Nordeste 0 -- -- 69
2019-11-10 08:00:00 16.5 19 Nordeste 37 Nordeste 0 -- -- 72
2019-11-10 07:00:00 16.4 16 Nordeste 39 Nordeste 0 -- -- 71
2019-11-10 06:00:00 16.2 19 Nordeste 33 Nordeste 0 -- -- 73
2019-11-10 05:00:00 16.2 14 Nordeste 30 Nordeste 0 -- -- 74
2019-11-10 04:00:00 16.7 18 Nordeste 39 Nordeste 0 -- -- 71
2019-11-10 03:00:00 16.7 19 Nordeste 35 Nordeste 0 -- -- 72
2019-11-10 02:00:00 16.7 19 Nordeste 34 Norte 0 -- -- 70
2019-11-10 01:00:00 16.8 18 Nordeste 36 Nordeste 0 -- -- 70
2019-11-10 00:00:00 17.3 25 Nordeste 35 Nordeste 0 -- -- 67